createdAt,value
2023-03-16T00:01:06.199Z,74.85
2023-03-16T00:03:38.238Z,74.64
2023-03-16T00:06:10.155Z,75.04
2023-03-16T00:08:43.244Z,74.99
2023-03-16T00:11:14.903Z,74.52
2023-03-16T00:13:47.856Z,74.71
2023-03-16T00:16:19.577Z,74.57
2023-03-16T00:18:51.300Z,74.79
2023-03-16T00:21:22.984Z,74.60
2023-03-16T00:23:54.655Z,74.81
2023-03-16T00:26:26.437Z,74.57
2023-03-16T00:28:58.321Z,74.50
2023-03-16T00:31:30.056Z,74.69
2023-03-16T00:34:04.679Z,74.32
2023-03-16T00:36:38.313Z,74.55
2023-03-16T00:39:11.850Z,74.52
2023-03-16T00:41:44.076Z,74.06
2023-03-16T00:44:16.863Z,74.32
2023-03-16T00:46:48.488Z,74.00
2023-03-16T00:49:22.461Z,73.78
2023-03-16T00:51:54.259Z,74.11
2023-03-16T00:54:27.124Z,73.95
2023-03-16T00:57:00.135Z,73.89
2023-03-16T00:59:32.130Z,73.92
2023-03-16T01:02:05.508Z,73.71
2023-03-16T01:04:38.079Z,73.88
2023-03-16T01:07:13.493Z,73.79
2023-03-16T01:09:45.601Z,74.02
2023-03-16T01:12:19.522Z,74.04
2023-03-16T01:14:51.233Z,74.08
2023-03-16T01:17:23.952Z,74.34
2023-03-16T01:19:55.653Z,74.01
2023-03-16T01:22:28.640Z,74.17
2023-03-16T01:25:00.327Z,73.80
2023-03-16T01:27:32.979Z,73.96
2023-03-16T01:30:06.352Z,74.10
2023-03-16T01:32:39.969Z,74.07
2023-03-16T01:35:12.704Z,73.91
2023-03-16T01:37:44.649Z,73.63
2023-03-16T01:40:22.246Z,73.69
2023-03-16T01:43:04.864Z,73.46
2023-03-16T01:46:06.087Z,73.61
2023-03-16T01:49:05.518Z,74.24
2023-03-16T01:51:50.857Z,73.73
2023-03-16T01:54:34.273Z,73.58
2023-03-16T01:57:10.457Z,73.71
2023-03-16T01:59:49.420Z,73.75
2023-03-16T02:02:24.126Z,73.65
2023-03-16T02:05:08.128Z,73.61
2023-03-16T02:07:46.447Z,74.24
2023-03-16T02:10:20.391Z,73.68
2023-03-16T02:12:53.471Z,73.78
2023-03-16T02:15:27.366Z,73.98
2023-03-16T02:18:00.263Z,74.00
2023-03-16T02:21:07.324Z,73.98
2023-03-16T02:23:39.108Z,73.82
2023-03-16T02:26:35.668Z,74.02
2023-03-16T02:29:40.393Z,74.05
2023-03-16T02:32:14.421Z,74.03
2023-03-16T02:34:46.285Z,73.75
2023-03-16T02:37:18.556Z,74.06
2023-03-16T02:39:52.359Z,74.57
2023-03-16T02:42:28.997Z,74.39
2023-03-16T02:45:05.340Z,74.51
2023-03-16T02:47:44.621Z,74.39
2023-03-16T02:50:17.229Z,74.53
2023-03-16T02:52:48.998Z,74.73
2023-03-16T02:55:21.795Z,74.68
2023-03-16T02:57:53.818Z,74.29
2023-03-16T03:00:26.098Z,73.89
2023-03-16T03:02:59.025Z,74.31
2023-03-16T03:05:30.988Z,74.29
2023-03-16T03:08:03.231Z,74.33
2023-03-16T03:10:35.059Z,74.14
2023-03-16T03:13:07.470Z,74.50
2023-03-16T03:15:40.135Z,74.54
2023-03-16T03:18:14.890Z,74.46
2023-03-16T03:20:46.599Z,74.52
2023-03-16T03:23:20.443Z,74.17
2023-03-16T03:25:52.112Z,74.21
2023-03-16T03:28:23.971Z,74.24
2023-03-16T03:30:57.170Z,74.06
2023-03-16T03:33:29.168Z,73.96
2023-03-16T03:36:03.026Z,73.96
2023-03-16T03:38:43.643Z,73.85
2023-03-16T03:41:15.472Z,73.58
2023-03-16T03:43:47.583Z,73.70
2023-03-16T03:46:22.582Z,73.96
2023-03-16T03:48:54.336Z,73.76
2023-03-16T03:51:26.032Z,73.66
2023-03-16T03:54:04.948Z,73.25
2023-03-16T03:56:45.680Z,73.60
2023-03-16T03:59:20.866Z,73.38
2023-03-16T04:02:04.586Z,73.33
2023-03-16T04:04:47.755Z,73.25
2023-03-16T04:07:20.319Z,73.25
2023-03-16T04:09:53.569Z,73.22
2023-03-16T04:12:40.217Z,73.60
2023-03-16T04:15:16.156Z,73.76
2023-03-16T04:18:13.006Z,73.59
2023-03-16T04:20:45.881Z,73.79
2023-03-16T04:23:22.340Z,73.78
2023-03-16T04:25:55.534Z,73.56
2023-03-16T04:28:27.874Z,73.93
2023-03-16T04:31:05.381Z,73.96
2023-03-16T04:33:42.416Z,73.88
2023-03-16T04:36:14.800Z,73.81
2023-03-16T04:38:47.808Z,74.38
2023-03-16T04:41:22.618Z,74.08
2023-03-16T04:44:07.887Z,74.16
2023-03-16T04:46:40.271Z,74.36
2023-03-16T04:49:14.620Z,74.38
2023-03-16T04:51:49.263Z,74.24
2023-03-16T04:54:24.217Z,73.88
2023-03-16T04:56:55.902Z,73.98
2023-03-16T04:59:41.723Z,74.13
2023-03-16T05:02:35.499Z,74.00
2023-03-16T05:05:10.932Z,73.66
2023-03-16T05:07:46.541Z,73.61
2023-03-16T05:10:19.372Z,73.75
2023-03-16T05:12:52.159Z,73.71
2023-03-16T05:15:23.949Z,73.83
2023-03-16T05:18:03.898Z,73.75
2023-03-16T05:20:35.995Z,74.04
2023-03-16T05:23:09.262Z,74.02
2023-03-16T05:25:49.546Z,74.15
2023-03-16T05:28:23.742Z,74.26
2023-03-16T05:31:07.337Z,73.96
2023-03-16T05:33:49.751Z,73.83
2023-03-16T05:36:24.818Z,74.16
2023-03-16T05:39:03.232Z,73.99
2023-03-16T05:41:41.708Z,73.56
2023-03-16T05:44:21.227Z,73.27
2023-03-16T05:47:19.858Z,72.30
2023-03-16T05:49:56.391Z,70.33
2023-03-16T05:52:35.692Z,68.85
2023-03-16T05:55:17.209Z,65.05
2023-03-16T05:57:52.270Z,61.64
2023-03-16T06:00:25.759Z,57.67
2023-03-16T06:03:08.031Z,53.72
2023-03-16T06:05:42.778Z,50.93
2023-03-16T06:08:17.403Z,46.86
2023-03-16T06:10:52.339Z,45.14
2023-03-16T06:13:25.409Z,42.39
2023-03-16T06:15:57.161Z,40.60
2023-03-16T06:18:35.509Z,36.65
2023-03-16T06:21:08.070Z,36.70
2023-03-16T06:23:40.863Z,35.47
2023-03-16T06:26:13.784Z,33.62
2023-03-16T06:28:48.877Z,33.03
2023-03-16T06:31:20.785Z,32.51
2023-03-16T06:33:52.853Z,33.35
2023-03-16T06:36:25.984Z,34.14
2023-03-16T06:39:01.300Z,34.52
2023-03-16T06:41:53.520Z,35.61
2023-03-16T06:44:28.761Z,35.99
2023-03-16T06:47:15.073Z,35.90
2023-03-16T06:49:47.075Z,36.87
2023-03-16T06:52:24.016Z,35.49
2023-03-16T06:54:58.232Z,36.44
2023-03-16T06:57:31.468Z,35.78
2023-03-16T07:00:04.651Z,35.93
2023-03-16T07:02:36.385Z,35.79
2023-03-16T07:05:13.399Z,35.18
2023-03-16T07:07:45.608Z,34.59
2023-03-16T07:10:18.425Z,34.22
2023-03-16T07:12:50.538Z,34.06
2023-03-16T07:15:25.647Z,34.57
2023-03-16T07:17:59.882Z,34.31
2023-03-16T07:20:33.058Z,34.24
2023-03-16T07:23:08.267Z,33.46
2023-03-16T07:25:40.661Z,33.05
2023-03-16T07:28:12.726Z,33.00
2023-03-16T07:31:02.387Z,32.93
2023-03-16T07:33:40.755Z,33.81
2023-03-16T07:36:16.267Z,33.25
2023-03-16T07:38:57.491Z,32.61
2023-03-16T07:41:31.623Z,32.28
2023-03-16T07:44:18.659Z,32.70
2023-03-16T07:46:53.635Z,32.77
2023-03-16T07:49:29.344Z,32.77
2023-03-16T07:52:03.451Z,32.62
2023-03-16T07:54:43.407Z,33.23
2023-03-16T07:57:18.803Z,34.09
2023-03-16T07:59:50.563Z,34.18
2023-03-16T08:02:23.094Z,33.96
2023-03-16T08:04:55.646Z,34.29
2023-03-16T08:07:28.269Z,33.53
2023-03-16T08:10:12.277Z,33.58
2023-03-16T08:12:50.067Z,33.26
2023-03-16T08:15:22.392Z,33.79
2023-03-16T08:17:59.296Z,34.18
2023-03-16T08:20:32.286Z,35.13
2023-03-16T08:23:04.343Z,35.18
2023-03-16T08:25:43.309Z,33.92
2023-03-16T08:28:21.749Z,34.25
2023-03-16T08:30:55.720Z,34.74
2023-03-16T08:33:38.690Z,34.16
2023-03-16T08:36:13.847Z,33.77
2023-03-16T08:39:00.068Z,33.07
2023-03-16T08:41:38.138Z,33.34
2023-03-16T08:44:14.217Z,34.01
2023-03-16T08:46:47.398Z,33.72
2023-03-16T08:49:20.837Z,32.79
2023-03-16T08:52:00.802Z,33.11
2023-03-16T08:54:35.635Z,32.93
2023-03-16T08:57:07.727Z,33.25
2023-03-16T08:59:41.742Z,33.21
2023-03-16T09:02:14.822Z,33.11
2023-03-16T09:04:47.236Z,33.14
2023-03-16T09:07:20.546Z,33.39
2023-03-16T09:09:52.781Z,33.72
2023-03-16T09:12:25.051Z,33.55
2023-03-16T09:14:56.858Z,33.34
2023-03-16T09:17:28.648Z,33.33
2023-03-16T09:20:15.064Z,33.77
2023-03-16T09:22:52.210Z,33.93
2023-03-16T09:25:25.467Z,33.39
2023-03-16T09:27:57.299Z,33.88
2023-03-16T09:30:29.775Z,33.31
2023-03-16T09:33:04.926Z,32.65
2023-03-16T09:35:37.266Z,33.02
2023-03-16T09:38:10.194Z,32.24
2023-03-16T09:40:46.691Z,33.22
2023-03-16T09:43:32.305Z,32.18
2023-03-16T09:46:36.266Z,33.58
2023-03-16T09:49:12.306Z,34.27
2023-03-16T09:52:30.221Z,34.03
2023-03-16T09:55:15.312Z,32.99
2023-03-16T09:57:51.050Z,32.83
2023-03-16T10:00:27.956Z,32.73
2023-03-16T10:03:24.193Z,31.93
2023-03-16T10:06:02.260Z,30.48
2023-03-16T10:08:58.577Z,28.90
2023-03-16T10:11:42.777Z,28.37
2023-03-16T10:14:37.957Z,28.50
2023-03-16T10:17:22.007Z,29.41
2023-03-16T10:19:58.972Z,29.74
2023-03-16T10:22:35.698Z,29.88
2023-03-16T10:25:16.459Z,29.40
2023-03-16T10:27:49.124Z,30.04
2023-03-16T10:30:32.486Z,29.73
2023-03-16T10:33:18.446Z,29.53
2023-03-16T10:36:12.595Z,29.37
2023-03-16T10:38:48.321Z,29.73
2023-03-16T10:41:22.739Z,29.88
2023-03-16T10:43:59.838Z,31.42
2023-03-16T10:46:39.416Z,31.88
2023-03-16T10:49:22.157Z,30.86
2023-03-16T10:51:57.215Z,30.71
2023-03-16T10:54:33.750Z,30.41
2023-03-16T10:57:21.011Z,30.40
2023-03-16T10:59:56.744Z,30.92
2023-03-16T11:02:33.396Z,31.21
2023-03-16T11:05:24.692Z,30.88
2023-03-16T11:08:12.023Z,29.52
2023-03-16T11:10:58.238Z,29.59
2023-03-16T11:13:37.695Z,30.03
2023-03-16T11:16:30.609Z,30.54
2023-03-16T11:19:23.677Z,31.29
2023-03-16T11:22:08.596Z,31.16
2023-03-16T11:24:52.548Z,31.98
2023-03-16T11:27:37.565Z,32.21
2023-03-16T11:30:09.776Z,31.15
2023-03-16T11:32:46.922Z,30.99
2023-03-16T11:35:22.515Z,32.09
2023-03-16T11:38:17.744Z,31.78
2023-03-16T11:40:56.072Z,32.78
2023-03-16T11:43:55.406Z,31.72
2023-03-16T11:46:55.586Z,31.44
2023-03-16T11:49:54.881Z,29.60
2023-03-16T11:52:50.247Z,29.54
2023-03-16T11:55:29.037Z,30.44
2023-03-16T11:58:19.720Z,30.91
2023-03-16T12:01:13.264Z,32.17
2023-03-16T12:04:10.275Z,30.72
2023-03-16T12:06:47.972Z,32.12
2023-03-16T12:09:50.727Z,31.92
2023-03-16T12:12:40.570Z,29.71
2023-03-16T12:15:33.293Z,30.72
2023-03-16T12:18:16.736Z,32.93
2023-03-16T12:21:03.498Z,33.82
2023-03-16T12:23:40.821Z,34.61
2023-03-16T12:26:12.598Z,34.02
2023-03-16T12:28:45.122Z,32.55
2023-03-16T12:31:25.614Z,32.45
2023-03-16T12:34:03.085Z,32.62
2023-03-16T12:37:05.586Z,32.69
2023-03-16T12:39:55.363Z,33.71
2023-03-16T12:42:52.177Z,33.52
2023-03-16T12:46:00.926Z,34.19
2023-03-16T12:48:42.786Z,33.65
2023-03-16T12:51:14.613Z,32.84
2023-03-16T12:53:54.866Z,32.68
2023-03-16T12:56:36.471Z,33.67
2023-03-16T12:59:15.363Z,34.29
2023-03-16T13:02:13.057Z,33.99
2023-03-16T13:04:51.546Z,33.04
2023-03-16T13:07:26.377Z,33.00
2023-03-16T13:10:04.286Z,32.75
2023-03-16T13:12:38.214Z,33.79
2023-03-16T13:15:19.519Z,33.86
2023-03-16T13:18:06.615Z,33.18
2023-03-16T13:20:53.605Z,33.62
2023-03-16T13:23:27.560Z,33.06
2023-03-16T13:26:11.056Z,32.77
2023-03-16T13:28:46.095Z,33.67
2023-03-16T13:31:35.950Z,34.08
2023-03-16T13:34:14.775Z,34.20
2023-03-16T13:36:46.675Z,34.75
2023-03-16T13:39:22.318Z,34.77
2023-03-16T13:41:59.559Z,33.86
2023-03-16T13:44:32.549Z,33.85
2023-03-16T13:47:05.322Z,34.24
2023-03-16T13:49:56.905Z,34.54
2023-03-16T13:52:31.576Z,35.27
2023-03-16T13:55:06.635Z,35.23
2023-03-16T13:57:40.841Z,35.25
2023-03-16T14:00:25.428Z,35.22
2023-03-16T14:02:59.200Z,33.02
2023-03-16T14:05:35.270Z,33.51
2023-03-16T14:08:22.597Z,34.63
2023-03-16T14:10:59.828Z,34.93
2023-03-16T14:13:36.263Z,35.94
2023-03-16T14:16:13.410Z,36.13
2023-03-16T14:18:52.651Z,36.34
2023-03-16T14:21:27.406Z,35.70
2023-03-16T14:24:00.189Z,36.12
2023-03-16T14:26:46.616Z,34.30
2023-03-16T14:29:28.208Z,34.01
2023-03-16T14:32:00.259Z,34.36
2023-03-16T14:34:37.223Z,35.75
2023-03-16T14:37:11.849Z,35.67
2023-03-16T14:39:43.568Z,35.51
2023-03-16T14:42:25.989Z,34.73
2023-03-16T14:45:10.991Z,34.87
2023-03-16T14:47:46.458Z,35.57
2023-03-16T14:50:23.984Z,35.67
2023-03-16T14:52:57.271Z,35.95
2023-03-16T14:55:29.390Z,36.45
2023-03-16T14:58:01.777Z,36.14
2023-03-16T15:00:42.817Z,36.71
2023-03-16T15:03:33.220Z,37.07
2023-03-16T15:06:05.209Z,36.76
2023-03-16T15:08:44.316Z,36.96
2023-03-16T15:11:21.308Z,37.62
2023-03-16T15:13:53.833Z,37.71
2023-03-16T15:16:26.031Z,37.68
2023-03-16T15:18:57.788Z,37.23
2023-03-16T15:21:32.306Z,36.84
2023-03-16T15:24:04.067Z,37.57
2023-03-16T15:26:35.969Z,38.45
2023-03-16T15:29:13.654Z,38.38
2023-03-16T15:31:45.706Z,38.36
2023-03-16T15:34:17.481Z,38.31
2023-03-16T15:36:50.004Z,37.67
2023-03-16T15:39:24.913Z,38.24
2023-03-16T15:41:56.868Z,37.85
2023-03-16T15:44:31.709Z,37.93
2023-03-16T15:47:04.561Z,37.79
2023-03-16T15:49:47.164Z,37.48
2023-03-16T15:52:33.273Z,38.75
2023-03-16T15:55:09.424Z,38.10
2023-03-16T15:57:41.323Z,37.11
2023-03-16T16:00:37.452Z,37.48
2023-03-16T16:03:11.698Z,37.46
2023-03-16T16:05:43.394Z,37.32
2023-03-16T16:08:15.429Z,36.88
2023-03-16T16:10:48.758Z,37.27
2023-03-16T16:13:37.469Z,37.36
2023-03-16T16:16:16.073Z,37.81
2023-03-16T16:18:48.298Z,37.44
2023-03-16T16:21:24.510Z,37.88
2023-03-16T16:23:56.847Z,38.38
2023-03-16T16:26:48.300Z,38.04
2023-03-16T16:29:22.609Z,38.45
2023-03-16T16:31:55.437Z,38.71
2023-03-16T16:34:28.024Z,38.41
2023-03-16T16:36:59.787Z,38.49
2023-03-16T16:39:31.468Z,39.35
2023-03-16T16:42:03.384Z,39.27
2023-03-16T16:44:37.623Z,39.69
2023-03-16T16:47:20.618Z,38.92
2023-03-16T16:49:52.740Z,39.48
2023-03-16T16:52:24.546Z,39.19
2023-03-16T16:54:56.217Z,39.60
2023-03-16T16:57:27.910Z,38.96
2023-03-16T17:00:00.664Z,39.52
2023-03-16T17:02:43.390Z,39.34
2023-03-16T17:05:26.973Z,39.82
2023-03-16T17:08:04.080Z,40.17
2023-03-16T17:10:37.787Z,40.18
2023-03-16T17:13:26.360Z,40.37
2023-03-16T17:15:58.862Z,40.72
2023-03-16T17:18:30.660Z,40.62
2023-03-16T17:21:02.505Z,41.60
2023-03-16T17:23:37.234Z,41.56
2023-03-16T17:26:28.869Z,41.57
2023-03-16T17:29:05.325Z,41.87
2023-03-16T17:31:41.749Z,42.24
2023-03-16T17:34:23.214Z,42.44
2023-03-16T17:36:58.448Z,43.08
2023-03-16T17:39:36.453Z,43.16
2023-03-16T17:42:18.471Z,43.41
2023-03-16T17:44:52.415Z,43.74
2023-03-16T17:47:31.214Z,43.73
2023-03-16T17:50:02.959Z,44.10
2023-03-16T17:52:37.157Z,44.84
2023-03-16T17:55:09.123Z,44.78
2023-03-16T17:57:41.136Z,44.53
2023-03-16T18:00:23.439Z,45.08
2023-03-16T18:02:58.749Z,45.10
2023-03-16T18:05:35.536Z,45.38
2023-03-16T18:08:13.483Z,45.64
2023-03-16T18:10:46.842Z,45.61
2023-03-16T18:13:27.582Z,45.71
2023-03-16T18:16:02.894Z,45.96
2023-03-16T18:18:38.417Z,46.01
2023-03-16T18:21:21.741Z,46.04
2023-03-16T18:23:54.132Z,45.90
2023-03-16T18:26:27.527Z,46.06
2023-03-16T18:28:59.351Z,46.04
2023-03-16T18:31:31.172Z,45.71
2023-03-16T18:34:06.363Z,46.05
2023-03-16T18:36:43.072Z,46.08
2023-03-16T18:39:19.162Z,46.06
2023-03-16T18:41:51.094Z,46.09
2023-03-16T18:44:25.884Z,45.69
2023-03-16T18:47:01.192Z,45.60
2023-03-16T18:49:35.842Z,45.52
2023-03-16T18:52:28.424Z,45.50
2023-03-16T18:55:00.159Z,45.78
2023-03-16T18:57:32.473Z,45.45
2023-03-16T19:00:04.693Z,45.42
2023-03-16T19:02:39.065Z,45.49
2023-03-16T19:05:15.638Z,45.68
2023-03-16T19:07:50.255Z,45.75
2023-03-16T19:10:25.978Z,45.57
2023-03-16T19:12:58.416Z,45.27
2023-03-16T19:15:34.501Z,45.63
2023-03-16T19:18:06.322Z,45.28
2023-03-16T19:20:38.827Z,45.54
2023-03-16T19:23:23.597Z,45.45
2023-03-16T19:25:56.057Z,45.26
2023-03-16T19:28:34.807Z,45.43
2023-03-16T19:31:16.669Z,45.48
2023-03-16T19:33:49.551Z,45.69
2023-03-16T19:36:32.276Z,45.61
2023-03-16T19:39:04.261Z,46.04
2023-03-16T19:41:37.812Z,45.80
2023-03-16T19:44:20.606Z,45.92
2023-03-16T19:46:52.623Z,46.26
2023-03-16T19:49:27.094Z,46.08
2023-03-16T19:51:58.800Z,46.62
2023-03-16T19:54:34.097Z,46.77
2023-03-16T19:57:14.303Z,47.00
2023-03-16T19:59:50.262Z,46.75
2023-03-16T20:02:34.701Z,46.93
2023-03-16T20:05:07.882Z,46.84
2023-03-16T20:07:39.569Z,47.26
2023-03-16T20:10:23.664Z,47.36
2023-03-16T20:13:00.614Z,47.50
2023-03-16T20:15:33.252Z,47.49
2023-03-16T20:18:13.232Z,47.31
2023-03-16T20:20:46.176Z,47.41
2023-03-16T20:23:26.582Z,47.69
2023-03-16T20:26:02.642Z,47.52
2023-03-16T20:28:36.969Z,47.82
2023-03-16T20:31:17.408Z,47.84
2023-03-16T20:33:50.737Z,47.37
2023-03-16T20:36:24.175Z,47.66
2023-03-16T20:38:56.057Z,47.75
2023-03-16T20:41:32.770Z,47.48
2023-03-16T20:44:05.003Z,47.44
2023-03-16T20:46:41.245Z,47.41
2023-03-16T20:49:22.607Z,47.77
2023-03-16T20:51:54.330Z,47.03
2023-03-16T20:54:26.120Z,46.96
2023-03-16T20:56:57.872Z,47.21
2023-03-16T20:59:30.426Z,46.91
2023-03-16T21:02:03.216Z,46.69
2023-03-16T21:04:34.914Z,46.97
2023-03-16T21:07:06.910Z,46.71
2023-03-16T21:09:38.556Z,47.81
2023-03-16T21:12:34.815Z,47.41
2023-03-16T21:15:29.280Z,48.32
2023-03-16T21:18:06.464Z,48.55
2023-03-16T21:20:38.216Z,48.09
2023-03-16T21:23:19.198Z,47.42
2023-03-16T21:25:56.787Z,47.98
2023-03-16T21:28:32.492Z,48.59
2023-03-16T21:31:05.237Z,47.48
2023-03-16T21:33:43.268Z,47.80
2023-03-16T21:36:18.170Z,48.06
2023-03-16T21:38:50.563Z,47.73
2023-03-16T21:41:22.936Z,48.04
2023-03-16T21:43:55.020Z,48.13
2023-03-16T21:46:29.837Z,48.31
2023-03-16T21:49:03.662Z,47.47
2023-03-16T21:51:36.289Z,48.05
2023-03-16T21:54:13.531Z,49.18
2023-03-16T21:56:46.465Z,48.64
2023-03-16T21:59:18.162Z,47.77
2023-03-16T22:02:01.088Z,47.78
2023-03-16T22:04:33.689Z,46.83
2023-03-16T22:07:11.633Z,46.53
2023-03-16T22:09:43.408Z,47.15
2023-03-16T22:12:15.812Z,47.10
2023-03-16T22:14:48.345Z,47.51
2023-03-16T22:17:22.280Z,49.11
2023-03-16T22:19:54.072Z,49.27
2023-03-16T22:22:27.283Z,49.72
2023-03-16T22:24:58.950Z,49.35
2023-03-16T22:27:30.630Z,49.21
2023-03-16T22:30:03.423Z,49.07
2023-03-16T22:32:35.583Z,48.70
2023-03-16T22:35:13.919Z,49.63
2023-03-16T22:37:45.745Z,49.37
2023-03-16T22:40:18.985Z,49.93
2023-03-16T22:42:50.760Z,49.70
2023-03-16T22:45:25.018Z,49.28
2023-03-16T22:47:58.508Z,50.09
2023-03-16T22:50:35.209Z,50.15
2023-03-16T22:53:08.898Z,50.45
2023-03-16T22:55:40.723Z,49.66
2023-03-16T22:58:32.552Z,50.69
2023-03-16T23:01:21.731Z,50.62
2023-03-16T23:03:53.784Z,50.97
2023-03-16T23:06:31.483Z,50.01
2023-03-16T23:09:03.639Z,50.90
2023-03-16T23:11:36.461Z,50.64
2023-03-16T23:14:16.899Z,50.68
2023-03-16T23:16:49.354Z,50.28
2023-03-16T23:19:33.902Z,49.84
2023-03-16T23:22:07.225Z,49.71
2023-03-16T23:24:39.852Z,49.74
2023-03-16T23:27:21.415Z,49.63
2023-03-16T23:29:53.220Z,48.75
2023-03-16T23:32:24.888Z,48.81
2023-03-16T23:34:56.539Z,48.74
2023-03-16T23:37:28.312Z,48.87
2023-03-16T23:39:59.992Z,49.01
2023-03-16T23:42:31.715Z,48.89
2023-03-16T23:45:10.200Z,49.03
2023-03-16T23:47:42.132Z,48.34
2023-03-16T23:50:17.556Z,48.33
2023-03-16T23:52:49.287Z,48.35
2023-03-16T23:55:21.457Z,48.74
2023-03-16T23:57:53.166Z,47.92
